Time;durP1;ratioP1;P1;durP2;ratioP2;P2;SDS_P1;SDS_P2;PMS_P1;PMS_P2;Temp;Humidity;BMP_temperature;BMP_pressure;BME280_temperature;BME280_humidity;BME280_pressure;Samples;Min_cycle;Max_cycle;Signal;HPM_P1;HPM_P2
2021/07/22 00:00:21;;;;;;;10.90;6.18;;;;;;;24.60;58.88;100160.53;4973678;28;20379;-75
2021/07/22 00:02:51;;;;;;;10.70;6.47;;;;;;;24.56;59.38;100160.91;4975541;28;20047;-75
2021/07/22 00:05:18;;;;;;;11.50;6.75;;;;;;;24.36;60.00;100172.09;4977678;28;20047;-75
2021/07/22 00:07:46;;;;;;;10.77;6.45;;;;;;;24.71;58.66;100162.84;4976834;28;20034;-76
2021/07/22 00:10:16;;;;;;;11.55;5.82;;;;;;;24.26;60.02;100164.22;4977646;28;20046;-76
2021/07/22 00:12:44;;;;;;;12.05;6.13;;;;;;;24.20;60.21;100167.56;4976655;28;20050;-75
2021/07/22 00:15:11;;;;;;;15.85;7.72;;;;;;;24.31;60.01;100160.06;4977079;28;20070;-76
2021/07/22 00:17:38;;;;;;;10.13;6.80;;;;;;;24.14;60.37;100161.06;4976668;28;20054;-76
2021/07/22 00:20:06;;;;;;;9.75;6.18;;;;;;;24.16;60.38;100163.56;4959810;28;20528;-78
2021/07/22 00:22:37;;;;;;;7.57;5.38;;;;;;;24.65;58.56;100161.69;4976797;28;20053;-76
2021/07/22 00:25:08;;;;;;;9.23;6.63;;;;;;;24.75;58.18;100153.53;4977232;28;20093;-76
2021/07/22 00:27:35;;;;;;;9.40;6.10;;;;;;;24.53;59.04;100147.91;4977016;28;20046;-73
2021/07/22 00:30:03;;;;;;;9.40;6.70;;;;;;;24.55;58.81;100153.06;4976607;28;20054;-74
2021/07/22 00:32:29;;;;;;;9.45;6.45;;;;;;;24.83;57.85;100145.53;4976922;28;20061;-74
2021/07/22 00:34:56;;;;;;;9.45;6.95;;;;;;;24.50;59.01;100145.59;4976418;28;20129;-74
2021/07/22 00:37:23;;;;;;;6.80;5.45;;;;;;;24.51;58.95;100147.25;4976867;28;20066;-74
2021/07/22 00:39:50;;;;;;;10.52;6.07;;;;;;;24.18;60.55;100150.91;4959089;28;20046;-74
2021/07/22 00:42:17;;;;;;;9.27;6.15;;;;;;;24.29;59.66;100148.75;4976296;28;20042;-75
2021/07/22 00:44:44;;;;;;;9.73;6.80;;;;;;;24.29;59.62;100148.75;4976198;28;20552;-76
2021/07/22 00:47:14;;;;;;;9.80;7.38;;;;;;;24.47;59.01;100145.09;4976700;28;20051;-76
2021/07/22 00:49:46;;;;;;;9.68;6.03;;;;;;;24.09;60.45;100143.94;4958856;28;20443;-76
2021/07/22 00:52:13;;;;;;;10.68;5.47;;;;;;;24.44;59.03;100137.41;4976589;28;20121;-75
2021/07/22 00:54:41;;;;;;;9.18;6.05;;;;;;;24.20;60.08;100140.94;4976284;28;20094;-76
2021/07/22 00:57:08;;;;;;;8.20;5.85;;;;;;;24.01;60.42;100140.25;4958564;28;20150;-76
2021/07/22 00:59:35;;;;;;;11.05;5.18;;;;;;;24.24;59.80;100145.75;4976522;28;20077;-76
2021/07/22 01:02:04;;;;;;;7.85;6.28;;;;;;;24.21;59.83;100142.59;4976108;28;20051;-78
2021/07/22 01:04:31;;;;;;;8.82;5.45;;;;;;;24.46;59.16;100138.94;4958846;28;20379;-78
2021/07/22 01:06:58;;;;;;;7.75;6.10;;;;;;;24.41;59.08;100149.25;4958613;28;20043;-75
2021/07/22 01:09:26;;;;;;;10.10;6.95;;;;;;;24.09;59.96;100143.94;4959061;28;20051;-79
2021/07/22 01:11:57;;;;;;;10.00;7.43;;;;;;;24.09;60.06;100146.59;4975773;28;20065;-75
2021/07/22 01:14:26;;;;;;;8.82;6.50;;;;;;;23.79;61.12;100138.25;4958372;23;20055;-82
2021/07/22 01:16:57;;;;;;;13.68;6.45;;;;;;;23.51;62.19;100137.66;4967637;28;20608;-82
2021/07/22 01:19:25;;;;;;;8.70;6.15;;;;;;;23.26;63.00;100142.91;4976634;28;20046;-83
2021/07/22 01:21:53;;;;;;;8.23;6.63;;;;;;;23.86;61.17;100139.22;4967220;28;20110;-81
2021/07/22 01:24:21;;;;;;;14.73;6.35;;;;;;;23.89;61.15;100146.91;4939639;29;20054;-81
2021/07/22 01:27:03;;;;;;;11.25;7.32;;;;;;;23.78;61.79;100153.38;4939662;29;20051;-82
2021/07/22 01:29:51;;;;;;;13.38;6.60;;;;;;;24.02;60.92;100152.59;4956864;28;20059;-82
2021/07/22 01:32:18;;;;;;;10.45;6.72;;;;;;;23.89;61.10;100157.53;4956934;29;20075;-82
2021/07/22 01:34:49;;;;;;;9.00;7.22;;;;;;;23.96;61.06;100147.91;4957438;28;20421;-83
2021/07/22 01:37:20;;;;;;;7.38;6.30;;;;;;;23.86;60.88;100141.91;4968495;28;20046;-84
2021/07/22 01:39:47;;;;;;;9.20;5.93;;;;;;;23.46;62.14;100135.50;4956398;29;20043;-83
2021/07/22 01:42:15;;;;;;;9.90;6.13;;;;;;;23.66;61.53;100141.38;4939531;29;20051;-83
2021/07/22 01:44:44;;;;;;;8.52;6.30;;;;;;;23.62;61.63;100144.50;4939294;28;20039;-83
2021/07/22 01:47:14;;;;;;;9.10;6.32;;;;;;;23.63;61.71;100143.53;4924089;29;20402;-84
2021/07/22 01:49:42;;;;;;;12.98;5.97;;;;;;;23.60;61.98;100141.19;4956659;29;20066;-82
2021/07/22 01:52:10;;;;;;;9.80;7.60;;;;;;;23.86;60.60;100136.56;4939468;29;20051;-83
2021/07/22 01:54:41;;;;;;;8.52;5.93;;;;;;;23.86;60.84;100141.91;4956606;29;20039;-83
2021/07/22 01:57:08;;;;;;;6.70;6.03;;;;;;;24.05;60.40;100152.22;4955691;29;20047;-81
2021/07/22 01:59:39;;;;;;;11.48;7.82;;;;;;;23.87;60.45;100148.91;4939138;29;20047;-84
2021/07/22 02:02:08;;;;;;;9.68;6.60;;;;;;;23.59;61.79;100147.47;4956499;29;20369;-81
2021/07/22 02:04:37;;;;;;;13.73;6.47;;;;;;;23.41;62.24;100151.09;4956412;29;20458;-82
2021/07/22 02:07:11;;;;;;;9.10;6.30;;;;;;;23.72;61.36;100158.53;4938833;29;20039;-80
2021/07/22 02:09:44;;;;;;;9.60;6.53;;;;;;;23.81;61.26;100152.22;4956488;29;20042;-80
2021/07/22 02:12:12;;;;;;;12.73;6.95;;;;;;;23.88;61.04;100150.56;4954617;29;20039;-81
2021/07/22 02:14:42;;;;;;;11.68;7.55;;;;;;;23.62;62.00;100158.63;4938208;29;20128;-80
2021/07/22 02:17:13;;;;;;;10.35;6.88;;;;;;;23.67;61.46;100155.53;4955818;29;20075;-81
2021/07/22 02:19:40;;;;;;;8.35;7.35;;;;;;;23.70;61.36;100160.50;4939059;29;20491;-82
2021/07/22 02:22:09;;;;;;;11.15;7.75;;;;;;;23.52;62.11;100161.44;4938590;29;20102;-82
2021/07/22 02:24:44;;;;;;;9.60;7.70;;;;;;;23.42;62.56;100162.56;4938316;29;20058;-82
2021/07/22 02:27:35;;;;;;;10.13;8.20;;;;;;;23.33;62.67;100171.50;4958545;29;20052;-78
2021/07/22 02:30:04;;;;;;;13.20;8.02;;;;;;;23.26;63.20;100163.34;4943641;29;20067;-80
2021/07/22 02:32:32;;;;;;;12.20;8.68;;;;;;;23.42;62.74;100171.38;4970405;29;20115;-80
2021/07/22 02:34:59;;;;;;;11.43;8.27;;;;;;;23.32;63.12;100170.69;4957578;29;20043;-80
2021/07/22 02:37:46;;;;;;;9.18;8.15;;;;;;;23.26;63.85;100180.13;4935931;29;20047;-80
2021/07/22 02:40:19;;;;;;;8.60;7.55;;;;;;;23.72;62.25;100172.66;4974574;29;20043;-81
2021/07/22 02:42:46;;;;;;;14.23;8.30;;;;;;;23.34;63.25;100183.84;4964392;29;20047;-80
2021/07/22 02:45:17;;;;;;;9.07;7.25;;;;;;;23.64;62.41;100182.44;4941059;29;20043;-80
2021/07/22 02:47:44;;;;;;;13.25;8.38;;;;;;;23.25;64.10;100185.63;4955832;29;20097;-80
2021/07/22 02:50:12;;;;;;;14.48;10.75;;;;;;;23.27;63.90;100189.78;4955285;29;20042;-82
2021/07/22 02:52:43;;;;;;;13.35;9.32;;;;;;;23.00;65.01;100192.63;4955849;29;20053;-80
2021/07/22 02:55:11;;;;;;;11.70;9.60;;;;;;;23.09;64.67;100185.53;4938108;29;20047;-80
2021/07/22 02:57:39;;;;;;;10.23;8.48;;;;;;;23.29;63.73;100189.63;4938219;29;20043;-80
2021/07/22 03:00:07;;;;;;;11.25;8.35;;;;;;;23.58;62.92;100186.56;4937926;29;20058;-80
2021/07/22 03:02:35;;;;;;;19.60;9.77;;;;;;;23.31;63.90;100189.47;4955132;29;20047;-81
2021/07/22 03:05:03;;;;;;;13.75;10.10;;;;;;;23.08;64.75;100194.53;4938294;29;20506;-80
2021/07/22 03:07:30;;;;;;;14.10;10.77;;;;;;;23.05;64.95;100200.97;4954999;29;20043;-81
2021/07/22 03:09:58;;;;;;;10.68;9.02;;;;;;;22.98;65.38;100197.28;4938120;29;20067;-81
2021/07/22 03:12:26;;;;;;;13.43;10.10;;;;;;;22.87;65.58;100192.22;4955232;29;20486;-81
2021/07/22 03:14:57;;;;;;;19.20;9.98;;;;;;;22.70;66.50;100196.59;4937796;29;20051;-81
2021/07/22 03:17:25;;;;;;;13.38;8.95;;;;;;;22.76;66.45;100195.97;4937848;29;20039;-83
2021/07/22 03:19:57;;;;;;;16.15;11.88;;;;;;;22.67;66.47;100208.34;4938044;29;20061;-81
2021/07/22 03:22:37;;;;;;;15.45;9.10;;;;;;;22.79;66.48;100206.25;4938118;29;20155;-83
2021/07/22 03:25:12;;;;;;;18.23;9.60;;;;;;;23.28;64.41;100209.25;4939374;28;20100;-82
2021/07/22 03:27:40;;;;;;;11.18;7.70;;;;;;;23.06;64.87;100209.78;4975574;28;20053;-82
2021/07/22 03:30:18;;;;;;;9.68;7.95;;;;;;;23.02;65.08;100209.28;4958965;28;20039;-82
2021/07/22 03:33:05;;;;;;;12.15;8.82;;;;;;;22.84;65.69;100214.59;4972900;28;20127;-82
2021/07/22 03:35:39;;;;;;;16.70;8.80;;;;;;;22.76;66.51;100217.22;4952480;28;20042;-83
2021/07/22 03:38:07;;;;;;;13.52;8.75;;;;;;;22.81;66.46;100208.78;4959758;28;20058;-83
2021/07/22 03:40:41;;;;;;;14.90;8.38;;;;;;;22.83;65.93;100218.25;4952508;28;20045;-83
2021/07/22 03:43:08;;;;;;;12.18;9.50;;;;;;;22.66;66.74;100221.81;4976644;28;20054;-82
2021/07/22 03:45:40;;;;;;;10.05;8.73;;;;;;;22.84;66.30;100222.56;4978775;28;20041;-82
2021/07/22 03:48:12;;;;;;;20.45;11.32;;;;;;;22.84;66.21;100229.72;4979741;28;20046;-80
2021/07/22 03:50:43;;;;;;;11.27;9.02;;;;;;;22.69;67.13;100225.00;4991982;28;20051;-81
2021/07/22 03:53:14;;;;;;;19.70;9.80;;;;;;;22.77;66.75;100221.53;4995001;28;20035;-80
2021/07/22 03:55:43;;;;;;;13.60;8.80;;;;;;;22.76;66.76;100206.59;4983677;28;20039;-80
2021/07/22 03:58:45;;;;;;;13.95;9.07;;;;;;;22.53;67.70;100211.59;4981497;28;20047;-79
2021/07/22 04:01:31;;;;;;;12.05;9.40;;;;;;;22.72;67.35;100210.53;4973852;28;20050;-79
2021/07/22 04:04:18;;;;;;;19.02;11.38;;;;;;;22.73;67.35;100222.84;4943503;28;20582;-79
2021/07/22 04:06:57;;;;;;;18.98;9.38;;;;;;;22.57;67.71;100217.41;4947642;28;20047;-81
2021/07/22 04:09:47;;;;;;;14.55;9.30;;;;;;;22.51;67.86;100218.03;4973356;28;20058;-80
2021/07/22 04:12:39;;;;;;;20.20;10.65;;;;;;;22.45;68.60;100220.31;4955924;28;20398;-79
2021/07/22 04:15:33;;;;;;;17.05;9.32;;;;;;;22.58;68.04;100224.38;4955562;28;20082;-79
2021/07/22 04:18:15;;;;;;;11.63;8.93;;;;;;;22.69;67.94;100226.78;4971338;28;20043;-80
2021/07/22 04:21:19;;;;;;;21.08;10.80;;;;;;;22.62;68.22;100229.25;4934605;28;20098;-80
2021/07/22 04:24:12;;;;;;;11.80;9.35;;;;;;;22.81;67.91;100227.41;4955651;28;20131;-80
2021/07/22 04:27:06;;;;;;;13.95;10.57;;;;;;;22.48;69.01;100225.34;4942556;28;20506;-80
2021/07/22 04:29:46;;;;;;;19.13;9.30;;;;;;;22.84;68.19;100227.91;4955452;28;20055;-80
2021/07/22 04:32:16;;;;;;;21.98;12.00;;;;;;;23.08;67.20;100235.22;4973733;28;20035;-80
2021/07/22 04:35:12;;;;;;;;;;;;;;;23.42;66.40;100235.22;4973340;28;20050;-80
2021/07/22 04:38:12;;;;;;;40.13;16.67;;;;;;;23.45;66.22;100234.91;4972051;28;19922;-81
2021/07/22 04:41:19;;;;;;;29.08;13.05;;;;;;;23.49;65.88;100232.78;4880748;29;20053;-80
2021/07/22 04:44:11;;;;;;;20.08;11.30;;;;;;;23.19;67.60;100226.16;4951495;29;20130;-79
2021/07/22 04:47:20;;;;;;;20.55;11.35;;;;;;;23.53;67.06;100234.94;4941785;28;20051;-82
2021/07/22 04:50:11;;;;;;;19.30;12.07;;;;;;;23.35;67.48;100236.88;4976007;28;20415;-82
2021/07/22 04:53:06;;;;;;;23.65;13.15;;;;;;;23.66;66.76;100233.69;4957738;29;20055;-81
2021/07/22 04:55:41;;;;;;;21.08;13.73;;;;;;;23.50;67.97;100227.28;4956499;28;20375;-81
2021/07/22 04:58:09;;;;;;;17.92;12.40;;;;;;;23.85;66.54;100224.59;4959727;28;20043;-82
2021/07/22 05:00:40;;;;;;;17.65;13.07;;;;;;;23.96;66.14;100222.44;4975090;28;20062;-81
2021/07/22 05:03:09;;;;;;;18.55;12.15;;;;;;;23.84;66.34;100218.44;4959444;28;20046;-80
2021/07/22 05:05:38;;;;;;;21.83;12.30;;;;;;;24.08;65.99;100219.50;4974517;28;20565;-78
2021/07/22 05:08:26;;;;;;;23.80;14.00;;;;;;;23.65;68.00;100224.03;4955838;28;20054;-80
2021/07/22 05:11:12;;;;;;;24.15;13.02;;;;;;;23.77;68.00;100214.75;4971440;28;20525;-83
2021/07/22 05:13:52;;;;;;;17.75;12.15;;;;;;;24.49;65.14;100207.84;4954206;28;20051;-82
2021/07/22 05:16:35;;;;;;;24.90;13.48;;;;;;;23.93;67.65;100213.97;4973891;28;20043;-82
2021/07/22 05:19:11;;;;;;;;;;;;;;;24.37;65.96;100219.03;4955480;28;20102;-81
2021/07/22 05:21:38;;;;;;;17.55;12.27;;;;;;;23.96;67.62;100222.44;4972369;28;20028;-83
2021/07/22 05:24:31;;;;;;;23.08;15.32;;;;;;;24.36;66.24;100222.69;4955380;28;20547;-80
2021/07/22 05:27:19;;;;;;;19.45;14.93;;;;;;;24.68;64.96;100220.00;4974406;28;20043;-80
2021/07/22 05:29:57;;;;;;;25.08;16.35;;;;;;;24.74;64.81;100221.16;4968239;28;20058;-79
2021/07/22 05:32:38;;;;;;;26.08;14.13;;;;;;;24.95;63.65;100224.13;4954909;28;20413;-80
2021/07/22 05:35:20;;;;;;;20.02;15.52;;;;;;;24.80;64.02;100231.16;4956752;28;20497;-78
2021/07/22 05:38:13;;;;;;;17.52;15.63;;;;;;;25.42;62.34;100230.53;4968975;28;20042;-82
2021/07/22 05:40:40;;;;;;;19.70;13.48;;;;;;;25.37;62.52;100233.72;4957200;28;20122;-79
2021/07/22 05:43:07;;;;;;;18.73;14.23;;;;;;;25.11;63.43;100228.63;4974609;28;20062;-80
2021/07/22 05:45:35;;;;;;;15.30;13.15;;;;;;;25.39;62.36;100237.03;4975008;28;20158;-86
2021/07/22 05:48:02;;;;;;;21.20;13.60;;;;;;;25.47;61.67;100242.34;4974991;28;20097;-87
2021/07/22 05:50:28;;;;;;;21.45;13.90;;;;;;;25.61;61.41;100233.59;4958536;28;20053;-89
2021/07/22 05:52:58;;;;;;;28.50;15.30;;;;;;;25.61;61.20;100240.75;4974497;28;20089;-86
2021/07/22 05:55:27;;;;;;;18.45;13.43;;;;;;;25.55;61.52;100247.63;4974539;28;20082;-86
2021/07/22 05:57:54;;;;;;;22.02;14.48;;;;;;;25.33;62.49;100245.72;4974273;28;20051;-78
2021/07/22 06:00:21;;;;;;;21.75;15.32;;;;;;;25.44;61.79;100250.69;4972121;28;20459;-80
2021/07/22 06:02:48;;;;;;;17.83;14.77;;;;;;;25.14;62.91;100252.28;4967486;28;20545;-80
2021/07/22 06:05:15;;;;;;;16.75;13.90;;;;;;;25.47;60.89;100250.34;4970609;28;20042;-79
2021/07/22 06:07:42;;;;;;;25.05;14.68;;;;;;;25.38;61.44;100245.22;4971658;28;20035;-80
2021/07/22 06:10:09;;;;;;;19.42;15.23;;;;;;;25.33;62.16;100246.56;4972865;28;20051;-78
2021/07/22 06:12:36;;;;;;;19.63;15.38;;;;;;;25.91;60.25;100251.66;4972052;28;20558;-79
2021/07/22 06:15:03;;;;;;;19.30;14.68;;;;;;;25.98;60.17;100248.09;4972793;28;20146;-77
2021/07/22 06:17:30;;;;;;;20.20;15.00;;;;;;;26.00;59.56;100245.28;4970587;28;20039;-80
2021/07/22 06:19:57;;;;;;;16.88;13.80;;;;;;;25.26;61.75;100240.25;4972491;28;20043;-81
2021/07/22 06:22:24;;;;;;;20.55;14.45;;;;;;;25.30;61.90;100248.72;4967691;28;20058;-81
2021/07/22 06:24:51;;;;;;;15.77;13.32;;;;;;;25.56;60.65;100238.59;4970521;28;20106;-83
2021/07/22 06:27:18;;;;;;;20.05;13.52;;;;;;;25.60;59.82;100245.28;4970197;28;20039;-84
2021/07/22 06:29:45;;;;;;;15.85;13.02;;;;;;;25.96;59.01;100239.44;4966716;28;20046;-83
2021/07/22 06:32:12;;;;;;;23.10;12.85;;;;;;;26.23;57.96;100235.41;4967594;28;20042;-83
2021/07/22 06:34:40;;;;;;;17.10;12.18;;;;;;;26.24;57.99;100238.91;4957880;28;20046;-83
2021/07/22 06:37:07;;;;;;;13.85;12.40;;;;;;;26.22;58.05;100241.78;4974886;28;20134;-83
2021/07/22 06:39:43;;;;;;;15.68;11.95;;;;;;;26.25;57.88;100235.22;4957526;28;20090;-84
2021/07/22 06:42:10;;;;;;;16.90;13.15;;;;;;;25.81;58.45;100235.84;4974826;28;20047;-83
2021/07/22 06:44:37;;;;;;;14.05;11.65;;;;;;;25.91;58.66;100231.13;4975172;28;20118;-82
2021/07/22 06:47:03;;;;;;;16.20;10.98;;;;;;;26.39;57.10;100237.13;4975007;28;20039;-83
2021/07/22 06:49:30;;;;;;;15.30;10.68;;;;;;;26.45;57.12;100231.09;4974318;28;20054;-83
2021/07/22 06:51:59;;;;;;;15.98;10.52;;;;;;;26.48;57.06;100236.09;4974489;28;20047;-81
2021/07/22 06:54:26;;;;;;;23.60;13.60;;;;;;;26.66;56.30;100238.44;4975003;28;20043;-84
2021/07/22 06:56:53;;;;;;;20.40;12.95;;;;;;;25.93;58.49;100246.97;4957747;28;20446;-83
2021/07/22 06:59:20;;;;;;;20.05;12.55;;;;;;;26.01;58.56;100246.94;4975350;28;20117;-82
2021/07/22 07:01:47;;;;;;;24.75;14.95;;;;;;;25.55;59.80;100247.63;4974904;28;20102;-79
2021/07/22 07:04:14;;;;;;;17.33;11.10;;;;;;;25.99;58.57;100248.94;4974630;28;20117;-79
2021/07/22 07:06:41;;;;;;;20.30;12.05;;;;;;;26.24;58.60;100249.59;4963513;28;20090;-79
2021/07/22 07:09:07;;;;;;;19.60;13.48;;;;;;;26.09;58.87;100249.53;4955225;28;20574;-80
2021/07/22 07:11:34;;;;;;;22.13;13.45;;;;;;;26.44;58.50;100258.00;4974200;28;20050;-79
2021/07/22 07:14:01;;;;;;;19.67;13.77;;;;;;;26.37;58.85;100263.22;4968746;28;20055;-82
2021/07/22 07:16:28;;;;;;;15.43;13.23;;;;;;;26.45;58.15;100262.34;4972850;28;20047;-80
2021/07/22 07:18:55;;;;;;;25.30;15.43;;;;;;;26.35;58.05;100259.88;4971080;28;20133;-80
2021/07/22 07:21:22;;;;;;;23.83;14.43;;;;;;;26.46;58.45;100256.81;4973993;28;20084;-81
2021/07/22 07:23:50;;;;;;;23.30;13.52;;;;;;;25.72;59.72;100258.22;4971513;28;20047;-82
2021/07/22 07:26:17;;;;;;;15.70;13.05;;;;;;;25.86;59.76;100254.84;4971013;28;20074;-83
2021/07/22 07:28:43;;;;;;;20.40;15.00;;;;;;;26.12;60.62;100266.06;4973494;28;20413;-84
2021/07/22 07:31:10;;;;;;;21.38;14.93;;;;;;;25.98;60.93;100279.31;4973010;28;20035;-83
2021/07/22 07:33:38;;;;;;;18.40;15.43;;;;;;;26.08;61.04;100271.91;4986403;28;20039;-83
2021/07/22 07:36:05;;;;;;;21.60;16.50;;;;;;;26.32;60.03;100268.25;4987594;28;20035;-82
2021/07/22 07:38:32;;;;;;;23.02;15.85;;;;;;;26.12;60.17;100276.75;4965680;28;20129;-83
2021/07/22 07:40:59;;;;;;;23.52;16.17;;;;;;;26.15;60.55;100269.38;4959936;28;20074;-84
2021/07/22 07:43:26;;;;;;;21.38;17.15;;;;;;;26.10;61.79;100272.59;4972943;28;20126;-82
2021/07/22 07:45:53;;;;;;;23.73;14.73;;;;;;;26.25;59.41;100272.63;4955296;28;20043;-84
2021/07/22 07:48:20;;;;;;;19.67;15.00;;;;;;;25.94;60.42;100273.53;4973099;28;20039;-83
2021/07/22 07:50:47;;;;;;;19.73;15.52;;;;;;;26.08;60.27;100275.41;4971473;28;20042;-84
2021/07/22 07:53:15;;;;;;;19.27;14.95;;;;;;;26.13;60.09;100278.41;4959234;28;20047;-84
2021/07/22 07:55:43;;;;;;;23.50;15.27;;;;;;;26.27;59.80;100278.66;4972682;28;20453;-82
2021/07/22 07:58:13;;;;;;;22.40;15.13;;;;;;;26.25;59.65;100280.66;4973111;28;20121;-82
2021/07/22 08:00:40;;;;;;;20.02;14.90;;;;;;;26.43;58.73;100275.06;4976378;28;20038;-82
2021/07/22 08:03:17;;;;;;;20.58;14.52;;;;;;;25.86;60.45;100268.22;4957254;28;20149;-83
2021/07/22 08:05:45;;;;;;;21.02;14.77;;;;;;;26.20;59.71;100261.66;4970605;28;20061;-80
2021/07/22 08:08:12;;;;;;;23.92;15.05;;;;;;;26.65;59.23;100276.88;4976579;28;20114;-81
2021/07/22 08:10:42;;;;;;;29.92;16.58;;;;;;;26.28;60.89;100274.97;4971242;28;20054;-80
2021/07/22 08:13:10;;;;;;;28.73;17.55;;;;;;;26.11;62.20;100267.06;4968867;28;20418;-81
2021/07/22 08:15:40;;;;;;;20.30;15.27;;;;;;;26.22;62.23;100268.50;4954685;28;20133;-80
2021/07/22 08:18:07;;;;;;;30.25;15.77;;;;;;;26.20;61.02;100265.16;4971518;28;20130;-80
2021/07/22 08:20:34;;;;;;;22.88;15.32;;;;;;;26.44;60.05;100271.38;4971873;28;20035;-81
2021/07/22 08:23:01;;;;;;;25.35;15.75;;;;;;;26.44;59.83;100266.84;4971462;28;20510;-82
2021/07/22 08:25:28;;;;;;;21.35;15.40;;;;;;;26.42;59.44;100263.53;4972257;28;20409;-82
2021/07/22 08:27:55;;;;;;;23.13;15.82;;;;;;;26.74;60.29;100259.75;4974558;28;20135;-81
2021/07/22 08:30:22;;;;;;;25.17;14.73;;;;;;;26.92;59.47;100266.63;4972824;28;20043;-81
2021/07/22 08:32:48;;;;;;;19.25;14.88;;;;;;;26.89;58.87;100262.44;4973807;28;20508;-81
2021/07/22 08:35:15;;;;;;;23.10;16.33;;;;;;;26.80;58.71;100274.25;4975796;28;20046;-80
2021/07/22 08:37:43;;;;;;;28.20;14.13;;;;;;;27.07;57.71;100268.31;4972635;28;20053;-80
2021/07/22 08:40:12;;;;;;;20.73;16.67;;;;;;;26.72;59.65;100266.28;4975510;28;20118;-81
2021/07/22 08:42:40;;;;;;;31.55;16.90;;;;;;;26.93;58.62;100269.09;4975746;28;20070;-81
2021/07/22 08:45:08;;;;;;;25.17;16.13;;;;;;;26.95;57.80;100263.56;4975170;28;20137;-81
2021/07/22 08:47:38;;;;;;;39.55;17.65;;;;;;;26.97;56.93;100254.34;4975932;28;20098;-80
2021/07/22 08:50:09;;;;;;;23.08;14.02;;;;;;;26.45;57.92;100273.88;4972914;28;20046;-81
2021/07/22 08:52:36;;;;;;;20.65;15.55;;;;;;;26.39;57.28;100269.22;4973747;28;20426;-80
2021/07/22 08:55:04;;;;;;;23.27;14.82;;;;;;;26.71;57.09;100267.31;4970156;28;20090;-81
2021/07/22 08:57:33;;;;;;;24.27;16.15;;;;;;;26.95;57.31;100255.53;4974922;28;20447;-79
2021/07/22 09:00:02;;;;;;;18.27;14.25;;;;;;;27.15;56.83;100256.69;4974646;28;20126;-80
2021/07/22 09:02:30;;;;;;;20.88;14.40;;;;;;;27.05;58.00;100259.59;4971492;28;20418;-81
2021/07/22 09:05:05;;;;;;;22.88;15.63;;;;;;;27.24;57.22;100262.78;4974869;28;20043;-83
2021/07/22 09:07:32;;;;;;;20.50;14.73;;;;;;;27.21;56.55;100268.50;4970680;28;20061;-79
2021/07/22 09:10:06;;;;;;;23.75;16.30;;;;;;;27.06;56.26;100268.47;4955176;28;20050;-81
2021/07/22 09:12:36;;;;;;;20.13;14.48;;;;;;;27.21;55.94;100265.81;4974846;28;20162;-81
2021/07/22 09:15:04;;;;;;;16.77;14.45;;;;;;;27.30;53.77;100264.72;4952417;28;20054;-80
2021/07/22 09:17:52;;;;;;;15.20;12.90;;;;;;;27.46;53.38;100259.19;4955093;29;20043;-82
2021/07/22 09:20:31;;;;;;;21.38;14.43;;;;;;;27.61;53.16;100261.84;4954927;29;20235;-83
2021/07/22 09:23:04;;;;;;;17.80;13.43;;;;;;;27.53;52.96;100265.44;4954713;29;20079;-82
2021/07/22 09:25:38;;;;;;;18.02;13.63;;;;;;;27.59;52.33;100264.72;4953891;28;20063;-84
2021/07/22 09:28:05;;;;;;;18.70;13.70;;;;;;;27.41;52.91;100266.94;4953547;28;20039;-85
2021/07/22 09:30:34;;;;;;;14.65;11.45;;;;;;;27.40;53.62;100255.41;4955252;28;20086;-80
2021/07/22 09:33:03;;;;;;;20.10;11.93;;;;;;;27.77;52.57;100268.88;4950486;28;20047;-83
2021/07/22 09:35:35;;;;;;;12.52;9.63;;;;;;;27.72;52.39;100268.59;4948481;28;20066;-84
2021/07/22 09:38:10;;;;;;;22.08;11.95;;;;;;;27.80;52.06;100268.47;4942958;28;20063;-85
2021/07/22 09:40:37;;;;;;;21.08;10.50;;;;;;;27.46;53.01;100269.88;4954352;28;20078;-82
2021/07/22 09:43:08;;;;;;;14.43;10.95;;;;;;;27.33;54.40;100269.72;4952974;28;20043;-84
2021/07/22 09:45:37;;;;;;;16.98;11.23;;;;;;;27.23;54.89;100264.66;4955124;28;20070;-87
2021/07/22 09:48:10;;;;;;;18.70;10.20;;;;;;;27.72;53.27;100274.78;4950665;28;20044;-87
2021/07/22 09:50:43;;;;;;;18.27;10.80;;;;;;;27.73;53.36;100267.59;4953088;29;20075;-82
2021/07/22 09:53:12;;;;;;;;;;;;;;;27.60;52.67;100271.72;4953335;28;20094;-82
2021/07/22 09:55:43;;;;;;;19.10;10.70;;;;;;;27.61;52.50;100264.53;4952302;28;19926;-81
2021/07/22 09:58:12;;;;;;;13.05;9.10;;;;;;;27.63;52.50;100265.97;4949193;28;20562;-83
2021/07/22 10:00:46;;;;;;;11.63;9.40;;;;;;;27.83;51.70;100257.41;4952715;28;20043;-81
2021/07/22 10:03:15;;;;;;;11.77;8.88;;;;;;;28.03;52.08;100252.28;4954851;28;20053;-80
2021/07/22 10:05:58;;;;;;;12.73;8.70;;;;;;;28.30;52.21;100245.31;4951336;28;20048;-81
2021/07/22 10:08:26;;;;;;;14.20;9.35;;;;;;;28.04;53.58;100256.59;4954547;28;20538;-82
2021/07/22 10:10:56;;;;;;;18.10;10.40;;;;;;;28.10;53.71;100237.91;4954006;28;20463;-83
2021/07/22 10:13:27;;;;;;;14.40;10.07;;;;;;;28.09;53.43;100236.25;4960092;28;20133;-86
2021/07/22 10:15:57;;;;;;;17.30;9.98;;;;;;;28.15;53.42;100243.53;4972749;28;20493;-84
2021/07/22 10:18:26;;;;;;;12.48;9.38;;;;;;;28.20;53.16;100237.59;4976118;28;20035;-86
2021/07/22 10:20:59;;;;;;;16.05;10.25;;;;;;;28.26;53.60;100234.16;4972461;28;20098;-87
2021/07/22 10:23:27;;;;;;;17.42;10.60;;;;;;;28.42;54.07;100233.09;4965366;28;20070;-82
2021/07/22 10:25:55;;;;;;;28.30;9.70;;;;;;;28.45;53.79;100230.03;4957086;28;20048;-84
2021/07/22 10:28:23;;;;;;;19.05;10.25;;;;;;;28.37;53.40;100230.97;4973032;28;20047;-84
2021/07/22 10:30:50;;;;;;;17.48;10.30;;;;;;;28.32;53.43;100222.66;4969215;28;20118;-88
2021/07/22 10:33:21;;;;;;;22.52;9.85;;;;;;;28.58;52.56;100219.41;4973156;28;20055;-82
2021/07/22 10:35:56;;;;;;;23.52;10.77;;;;;;;28.69;52.04;100224.22;4975322;28;20049;-87
2021/07/22 10:38:27;;;;;;;19.65;11.07;;;;;;;28.63;51.44;100218.81;4973492;28;20081;-85
2021/07/22 10:40:59;;;;;;;14.95;8.20;;;;;;;28.67;50.08;100226.28;4973107;28;20077;-85
2021/07/22 10:43:38;;;;;;;12.60;8.27;;;;;;;28.58;50.66;100215.91;4965145;28;20044;-86
2021/07/22 10:46:10;;;;;;;28.65;9.38;;;;;;;28.61;50.42;100220.88;4972116;28;20039;-87
2021/07/22 10:48:39;;;;;;;14.00;8.25;;;;;;;28.84;49.30;100221.44;4953804;29;20062;-86
2021/07/22 10:51:18;;;;;;;14.07;7.68;;;;;;;28.76;49.03;100216.22;4937840;28;20047;-86
2021/07/22 10:53:48;;;;;;;14.35;8.32;;;;;;;28.64;49.02;100215.94;4955650;28;20035;-86
2021/07/22 10:56:15;;;;;;;15.93;8.25;;;;;;;28.59;48.60;100212.19;4972649;28;20135;-85
2021/07/22 10:58:42;;;;;;;10.52;7.28;;;;;;;28.88;48.90;100203.13;4972597;28;20105;-85
2021/07/22 11:01:09;;;;;;;14.13;9.23;;;;;;;28.90;48.85;100201.06;4972588;28;20043;-85
2021/07/22 11:03:40;;;;;;;17.70;7.63;;;;;;;28.96;47.56;100197.59;4974851;28;20039;-84
2021/07/22 11:06:09;;;;;;;13.27;7.88;;;;;;;28.95;47.43;100193.28;4974818;28;20121;-84
2021/07/22 11:08:38;;;;;;;10.43;7.15;;;;;;;28.81;47.71;100194.19;4956907;28;20050;-84
2021/07/22 11:11:12;;;;;;;17.23;8.63;;;;;;;29.05;46.97;100191.06;4962646;28;20047;-85
2021/07/22 11:13:47;;;;;;;;;;;;;;;28.84;47.11;100196.47;4955551;29;20135;-84
2021/07/22 11:16:28;;;;;;;;;;;;;;;28.75;46.96;100186.91;4955982;28;20489;-83
2021/07/22 11:18:57;;;;;;;16.35;7.57;;;;;;;29.00;46.97;100179.25;4954804;28;19945;-84
2021/07/22 11:21:27;;;;;;;13.35;7.32;;;;;;;28.92;46.54;100174.84;4955190;28;20430;-84
2021/07/22 11:24:16;;;;;;;9.32;7.00;;;;;;;29.08;46.20;100163.81;4970104;28;20097;-84
2021/07/22 11:26:48;;;;;;;16.00;8.93;;;;;;;29.09;46.79;100168.19;4972610;28;20069;-86
2021/07/22 11:29:17;;;;;;;18.38;8.02;;;;;;;29.19;46.76;100171.31;4962217;28;20057;-85
2021/07/22 11:31:45;;;;;;;22.10;8.93;;;;;;;29.17;47.40;100173.34;4974976;28;20129;-86
2021/07/22 11:34:13;;;;;;;12.82;7.55;;;;;;;29.23;46.83;100167.19;4968682;28;20134;-85